createdAt,value
2023-02-04T00:00:20.620Z,2.13
2023-02-04T00:02:47.737Z,2.43
2023-02-04T00:05:17.129Z,1.93
2023-02-04T00:07:43.968Z,2.03
2023-02-04T00:10:11.152Z,2.60
2023-02-04T00:12:38.000Z,2.30
2023-02-04T00:15:06.035Z,2.80
2023-02-04T00:17:32.934Z,2.37
2023-02-04T00:19:59.717Z,2.00
2023-02-04T00:22:28.806Z,2.33
2023-02-04T00:24:55.771Z,2.53
2023-02-04T00:27:23.197Z,2.07
2023-02-04T00:29:50.003Z,2.10
2023-02-04T00:32:16.860Z,2.57
2023-02-04T00:34:43.582Z,2.50
2023-02-04T00:37:10.371Z,1.80
2023-02-04T00:39:37.238Z,1.73
2023-02-04T00:42:05.658Z,2.17
2023-02-04T00:44:32.717Z,2.30
2023-02-04T00:46:59.686Z,2.00
2023-02-04T00:49:26.494Z,1.97
2023-02-04T00:51:53.208Z,1.93
2023-02-04T00:54:20.166Z,2.20
2023-02-04T00:56:46.960Z,2.10
2023-02-04T00:59:13.737Z,2.17
2023-02-04T01:01:40.502Z,1.87
2023-02-04T01:04:07.458Z,2.60
2023-02-04T01:06:34.784Z,2.50
2023-02-04T01:09:01.724Z,2.43
2023-02-04T01:11:30.927Z,2.13
2023-02-04T01:13:58.202Z,1.97
2023-02-04T01:16:25.091Z,1.83
2023-02-04T01:18:51.863Z,2.10
2023-02-04T01:21:18.549Z,2.20
2023-02-04T01:23:45.291Z,2.33
2023-02-04T01:26:12.001Z,2.77
2023-02-04T01:28:38.728Z,2.33
2023-02-04T01:31:05.668Z,2.50
2023-02-04T01:33:32.631Z,2.37
2023-02-04T01:35:59.440Z,2.47
2023-02-04T01:38:26.222Z,1.83
2023-02-04T01:40:53.622Z,2.03
2023-02-04T01:43:22.436Z,2.47
2023-02-04T01:45:50.659Z,1.80
2023-02-04T01:48:21.741Z,2.13
2023-02-04T01:50:57.116Z,3.23
2023-02-04T01:53:26.492Z,2.40
2023-02-04T01:55:53.529Z,2.00
2023-02-04T01:58:20.408Z,2.10
2023-02-04T02:00:47.217Z,2.67
2023-02-04T02:03:14.102Z,2.50
2023-02-04T02:05:49.057Z,1.77
2023-02-04T02:08:17.236Z,3.00
2023-02-04T02:10:47.610Z,2.47
2023-02-04T02:13:18.896Z,2.27
2023-02-04T02:15:47.224Z,3.37
2023-02-04T02:18:14.756Z,2.23
2023-02-04T02:20:45.090Z,1.57
2023-02-04T02:24:00.885Z,1.83
2023-02-04T02:26:28.019Z,1.60
2023-02-04T02:28:55.414Z,2.43
2023-02-04T02:31:23.705Z,2.10
2023-02-04T02:33:50.745Z,2.50
2023-02-04T02:36:17.826Z,2.67
2023-02-04T02:38:44.721Z,1.90
2023-02-04T02:41:11.561Z,1.60
2023-02-04T02:43:39.376Z,2.00
2023-02-04T02:46:06.798Z,1.67
2023-02-04T02:48:33.732Z,2.40
2023-02-04T02:51:00.563Z,2.00
2023-02-04T02:53:27.380Z,2.20
2023-02-04T02:55:54.178Z,2.53
2023-02-04T02:58:33.755Z,1.67
2023-02-04T03:01:06.040Z,1.90
2023-02-04T03:03:37.925Z,1.83
2023-02-04T03:06:15.206Z,1.87
2023-02-04T03:08:44.212Z,1.83
2023-02-04T03:11:11.120Z,1.87
2023-02-04T03:13:38.601Z,2.43
2023-02-04T03:16:08.049Z,2.10
2023-02-04T03:18:36.483Z,1.90
2023-02-04T03:21:05.724Z,2.20
2023-02-04T03:23:36.764Z,1.80
2023-02-04T03:26:05.244Z,2.00
2023-02-04T03:28:32.890Z,1.90
2023-02-04T03:31:00.415Z,2.57
2023-02-04T03:33:31.800Z,2.30
2023-02-04T03:35:59.271Z,2.47
2023-02-04T03:38:26.980Z,2.60
2023-02-04T03:40:53.731Z,2.00
2023-02-04T03:43:20.513Z,3.30
2023-02-04T03:45:47.325Z,2.17
2023-02-04T03:48:14.152Z,2.27
2023-02-04T03:50:40.914Z,1.90
2023-02-04T03:53:07.933Z,2.13
2023-02-04T03:55:35.879Z,2.27
2023-02-04T03:58:04.163Z,2.57
2023-02-04T04:00:32.363Z,2.20
2023-02-04T04:03:00.245Z,3.40
2023-02-04T04:05:28.491Z,3.00
2023-02-04T04:07:55.293Z,3.67
2023-02-04T04:10:22.000Z,3.37
2023-02-04T04:12:48.744Z,1.43
2023-02-04T04:15:15.582Z,1.97
2023-02-04T04:17:42.334Z,3.20
2023-02-04T04:20:10.024Z,2.73
2023-02-04T04:22:36.731Z,2.60
2023-02-04T04:25:03.788Z,2.67
2023-02-04T04:27:30.603Z,1.80
2023-02-04T04:29:57.431Z,2.00
2023-02-04T04:32:24.469Z,2.93
2023-02-04T04:34:51.258Z,2.60
2023-02-04T04:37:18.079Z,2.30
2023-02-04T04:39:44.822Z,3.43
2023-02-04T04:42:11.561Z,2.47
2023-02-04T04:44:38.357Z,2.60
2023-02-04T04:47:05.058Z,2.17
2023-02-04T04:49:32.066Z,2.30
2023-02-04T04:51:58.766Z,2.87
2023-02-04T04:54:25.639Z,2.70
2023-02-04T04:56:52.323Z,2.03
2023-02-04T04:59:19.066Z,2.90
2023-02-04T05:01:45.819Z,2.50
2023-02-04T05:04:12.568Z,2.90
2023-02-04T05:06:39.373Z,2.53
2023-02-04T05:09:06.191Z,2.57
2023-02-04T05:11:32.969Z,3.20
2023-02-04T05:13:59.743Z,2.73
2023-02-04T05:16:26.630Z,2.83
2023-02-04T05:18:53.781Z,2.63
2023-02-04T05:21:20.539Z,2.93
2023-02-04T05:23:47.255Z,3.13
2023-02-04T05:26:22.178Z,2.33
2023-02-04T05:28:56.184Z,2.43
2023-02-04T05:31:23.113Z,2.67
2023-02-04T05:33:49.930Z,3.23
2023-02-04T05:36:17.738Z,2.73
2023-02-04T05:38:44.524Z,3.27
2023-02-04T05:41:11.511Z,3.37
2023-02-04T05:43:38.894Z,3.03
2023-02-04T05:46:05.902Z,3.20
2023-02-04T05:48:32.842Z,2.37
2023-02-04T05:50:59.544Z,3.43
2023-02-04T05:53:26.397Z,2.90
2023-02-04T05:55:53.125Z,2.77
2023-02-04T05:58:19.874Z,2.57
2023-02-04T06:00:46.617Z,2.73
2023-02-04T06:03:14.487Z,3.65
2023-02-04T06:05:41.391Z,3.47
2023-02-04T06:08:08.159Z,3.30
2023-02-04T06:10:34.955Z,3.90
2023-02-04T06:13:01.752Z,4.13
2023-02-04T06:15:28.482Z,4.10
2023-02-04T06:17:55.264Z,4.50
2023-02-04T06:20:22.052Z,3.83
2023-02-04T06:22:51.666Z,4.43
2023-02-04T06:25:18.891Z,4.23
2023-02-04T06:27:46.992Z,4.87
2023-02-04T06:30:14.747Z,3.77
2023-02-04T06:32:41.594Z,3.73
2023-02-04T06:35:09.603Z,4.33
2023-02-04T06:37:36.396Z,3.50
2023-02-04T06:40:03.145Z,3.83
2023-02-04T06:42:29.833Z,4.83
2023-02-04T06:44:56.552Z,4.03
2023-02-04T06:47:23.376Z,4.43
2023-02-04T06:49:50.088Z,4.33
2023-02-04T06:52:16.810Z,5.30
2023-02-04T06:54:43.547Z,5.27
2023-02-04T06:57:11.113Z,4.83
2023-02-04T06:59:40.311Z,4.73
2023-02-04T07:02:08.341Z,5.77
2023-02-04T07:04:35.408Z,4.80
2023-02-04T07:07:02.520Z,4.67
2023-02-04T07:09:29.605Z,5.27
2023-02-04T07:11:56.309Z,5.33
2023-02-04T07:14:23.050Z,6.03
2023-02-04T07:16:49.785Z,4.90
2023-02-04T07:19:16.590Z,4.73
2023-02-04T07:21:43.340Z,4.97
2023-02-04T07:24:10.065Z,4.67
2023-02-04T07:26:36.745Z,6.00
2023-02-04T07:29:03.479Z,5.80
2023-02-04T07:31:30.260Z,6.23
2023-02-04T07:33:57.019Z,6.33
2023-02-04T07:36:23.974Z,6.43
2023-02-04T07:38:50.772Z,7.17
2023-02-04T07:41:17.615Z,6.53
2023-02-04T07:43:44.557Z,6.83
2023-02-04T07:46:11.305Z,7.57
2023-02-04T07:48:38.030Z,6.70
2023-02-04T07:51:04.913Z,7.80
2023-02-04T07:53:31.658Z,7.40
2023-02-04T07:55:58.376Z,7.63
2023-02-04T07:58:25.171Z,7.80
2023-02-04T08:00:51.908Z,7.97
2023-02-04T08:03:18.741Z,8.13
2023-02-04T08:05:45.439Z,7.90
2023-02-04T08:08:12.324Z,7.93
2023-02-04T08:10:39.095Z,9.33
2023-02-04T08:13:05.806Z,9.13
2023-02-04T08:15:32.837Z,8.97
2023-02-04T08:17:59.656Z,8.83
2023-02-04T08:20:26.455Z,9.93
2023-02-04T08:22:53.222Z,8.67
2023-02-04T08:25:19.975Z,8.97
2023-02-04T08:27:46.776Z,9.93
2023-02-04T08:30:13.892Z,10.77
2023-02-04T08:32:40.739Z,10.10
2023-02-04T08:35:08.811Z,9.53
2023-02-04T08:37:35.552Z,9.60
2023-02-04T08:40:02.263Z,10.10
2023-02-04T08:42:29.304Z,10.53
2023-02-04T08:44:56.017Z,10.83
2023-02-04T08:47:23.030Z,10.70
2023-02-04T08:49:49.733Z,9.97
2023-02-04T08:52:16.463Z,11.23
2023-02-04T08:54:43.184Z,11.07
2023-02-04T08:57:09.878Z,10.30
2023-02-04T08:59:36.688Z,11.53
2023-02-04T09:02:03.923Z,12.43
2023-02-04T09:04:30.698Z,12.03
2023-02-04T09:06:57.407Z,11.67
2023-02-04T09:09:26.152Z,11.67
2023-02-04T09:11:53.118Z,9.70
2023-02-04T09:14:19.841Z,9.87
2023-02-04T09:16:46.764Z,8.80
2023-02-04T09:19:16.296Z,9.93
2023-02-04T09:21:43.003Z,7.73
2023-02-04T09:24:09.728Z,9.07
2023-02-04T09:26:36.651Z,8.83
2023-02-04T09:29:03.352Z,8.20
2023-02-04T09:31:30.172Z,8.53
2023-02-04T09:33:57.028Z,7.73
2023-02-04T09:36:28.351Z,8.47
2023-02-04T09:38:55.236Z,7.73
2023-02-04T09:41:22.317Z,7.90
2023-02-04T09:43:50.104Z,7.80
2023-02-04T09:46:25.374Z,7.63
2023-02-04T09:48:52.577Z,7.17
2023-02-04T09:51:27.494Z,7.30
2023-02-04T09:54:19.817Z,6.87
2023-02-04T09:56:48.016Z,8.60
2023-02-04T09:59:19.936Z,8.20
2023-02-04T10:01:56.299Z,8.23
2023-02-04T10:04:24.134Z,7.60
2023-02-04T10:06:50.977Z,7.47
2023-02-04T10:09:18.509Z,7.80
2023-02-04T10:11:48.556Z,7.93
2023-02-04T10:14:22.625Z,7.63
2023-02-04T10:17:01.540Z,7.23
2023-02-04T10:19:31.132Z,7.83
2023-02-04T10:21:58.487Z,7.10
2023-02-04T10:24:28.147Z,7.23
2023-02-04T10:27:06.000Z,7.57
2023-02-04T10:29:32.761Z,9.00
2023-02-04T10:31:59.476Z,7.33
2023-02-04T10:34:39.865Z,7.80
2023-02-04T10:37:22.654Z,7.53
2023-02-04T10:39:49.746Z,8.37
2023-02-04T10:42:33.132Z,7.63
2023-02-04T10:45:00.010Z,7.10
2023-02-04T10:47:31.349Z,7.30
2023-02-04T10:50:14.866Z,7.80
2023-02-04T10:53:34.808Z,6.70
2023-02-04T10:56:02.567Z,7.47
2023-02-04T10:58:31.938Z,7.00
2023-02-04T11:00:59.230Z,7.17
2023-02-04T11:03:30.787Z,7.73
2023-02-04T11:06:01.184Z,7.93
2023-02-04T11:08:35.358Z,7.77
2023-02-04T11:11:16.685Z,6.60
2023-02-04T11:13:49.487Z,7.53
2023-02-04T11:16:19.053Z,7.50
2023-02-04T11:18:54.955Z,7.47
2023-02-04T11:21:31.934Z,6.50
2023-02-04T11:24:13.793Z,16.03
2023-02-04T11:26:47.412Z,7.80
2023-02-04T11:29:26.210Z,7.55
2023-02-04T11:31:52.934Z,7.22
2023-02-04T11:34:19.597Z,7.97
2023-02-04T11:37:15.104Z,7.07
2023-02-04T11:39:50.477Z,7.10
2023-02-04T11:42:32.392Z,6.50
2023-02-04T11:45:22.976Z,6.35
2023-02-04T11:47:51.818Z,5.70
2023-02-04T11:50:33.364Z,6.28
2023-02-04T11:53:02.099Z,6.28
2023-02-04T11:55:36.005Z,5.55
2023-02-04T11:58:03.612Z,5.50
2023-02-04T12:00:33.280Z,5.72
2023-02-04T12:03:11.900Z,5.80
2023-02-04T12:05:42.673Z,6.25
2023-02-04T12:08:23.546Z,5.07
2023-02-04T12:11:25.821Z,4.78
2023-02-04T12:13:56.451Z,4.25
2023-02-04T12:16:24.551Z,4.57
2023-02-04T12:18:52.066Z,4.38
2023-02-04T12:21:19.365Z,4.93
2023-02-04T12:23:46.174Z,4.50
2023-02-04T12:26:13.275Z,4.73
2023-02-04T12:28:40.022Z,5.28
2023-02-04T12:31:06.937Z,4.83
2023-02-04T12:33:33.776Z,4.20
2023-02-04T12:36:00.557Z,5.17
2023-02-04T12:38:28.187Z,5.07
2023-02-04T12:40:54.943Z,4.90
2023-02-04T12:43:21.726Z,5.53
2023-02-04T12:45:49.791Z,4.13
2023-02-04T12:48:16.833Z,5.10
2023-02-04T12:50:43.756Z,4.40
2023-02-04T12:53:10.548Z,4.30
2023-02-04T12:55:37.383Z,4.43
2023-02-04T12:58:04.917Z,4.30
2023-02-04T13:00:31.738Z,3.97
2023-02-04T13:03:01.335Z,4.43
2023-02-04T13:05:28.519Z,4.70
2023-02-04T13:07:55.334Z,3.47
2023-02-04T13:10:23.925Z,3.97
2023-02-04T13:12:51.555Z,4.67
2023-02-04T13:15:18.500Z,4.97
2023-02-04T13:17:45.315Z,4.87
2023-02-04T13:20:12.808Z,4.63
2023-02-04T13:22:39.651Z,5.40
2023-02-04T13:25:07.153Z,4.77
2023-02-04T13:27:34.002Z,4.80
2023-02-04T13:30:00.754Z,5.43
2023-02-04T13:32:27.573Z,4.43
2023-02-04T13:34:54.297Z,4.00
2023-02-04T13:37:21.032Z,4.80
2023-02-04T13:39:47.838Z,4.47
2023-02-04T13:42:14.599Z,5.17
2023-02-04T13:44:41.313Z,5.17
2023-02-04T13:47:08.024Z,5.40
2023-02-04T13:49:34.881Z,4.40
2023-02-04T13:52:01.610Z,5.13
2023-02-04T13:54:28.489Z,5.27
2023-02-04T13:56:55.258Z,5.17
2023-02-04T13:59:21.983Z,4.17
2023-02-04T14:01:48.797Z,4.57
2023-02-04T14:04:15.597Z,4.70
2023-02-04T14:06:44.965Z,4.30
2023-02-04T14:09:12.487Z,5.43
2023-02-04T14:11:40.210Z,5.37
2023-02-04T14:14:07.595Z,5.30
2023-02-04T14:16:36.338Z,5.27
2023-02-04T14:19:05.232Z,6.17
2023-02-04T14:21:32.229Z,5.00
2023-02-04T14:23:59.167Z,4.97
2023-02-04T14:26:25.886Z,4.47
2023-02-04T14:28:52.674Z,4.67
2023-02-04T14:31:19.723Z,4.60
2023-02-04T14:33:48.072Z,5.77
2023-02-04T14:36:16.722Z,4.70
2023-02-04T14:38:43.437Z,4.77
2023-02-04T14:41:11.379Z,4.40
2023-02-04T14:43:38.058Z,4.87
2023-02-04T14:46:05.686Z,4.90
2023-02-04T14:48:32.639Z,5.50
2023-02-04T14:50:59.428Z,5.90
2023-02-04T14:53:26.216Z,6.00
2023-02-04T14:55:53.137Z,4.77
2023-02-04T14:58:19.894Z,4.57
2023-02-04T15:00:47.036Z,5.13
2023-02-04T15:03:13.758Z,5.43
2023-02-04T15:05:40.624Z,5.17
2023-02-04T15:08:07.405Z,5.50
2023-02-04T15:10:34.381Z,4.83
2023-02-04T15:13:01.377Z,4.83
2023-02-04T15:15:28.162Z,6.30
2023-02-04T15:17:54.942Z,6.30
2023-02-04T15:20:21.680Z,5.87
2023-02-04T15:22:51.784Z,5.10
2023-02-04T15:25:19.231Z,7.10
2023-02-04T15:27:46.026Z,6.37
2023-02-04T15:30:15.246Z,6.07
2023-02-04T15:32:42.976Z,6.67
2023-02-04T15:35:09.894Z,6.40
2023-02-04T15:37:36.712Z,7.73
2023-02-04T15:40:04.589Z,9.03
2023-02-04T15:42:31.425Z,8.43
2023-02-04T15:44:58.114Z,9.33
2023-02-04T15:47:24.814Z,8.40
2023-02-04T15:49:51.536Z,8.67
2023-02-04T15:52:24.618Z,9.97
2023-02-04T15:54:52.386Z,8.17
2023-02-04T15:57:19.118Z,8.33
2023-02-04T15:59:45.854Z,6.87
2023-02-04T16:02:12.649Z,8.07
2023-02-04T16:04:40.443Z,8.40
2023-02-04T16:07:08.293Z,8.77
2023-02-04T16:09:35.834Z,9.20
2023-02-04T16:12:02.946Z,9.10
2023-02-04T16:14:29.801Z,7.63
2023-02-04T16:16:56.521Z,7.20
2023-02-04T16:19:23.371Z,7.00
2023-02-04T16:21:50.096Z,7.17
2023-02-04T16:24:18.423Z,7.33
2023-02-04T16:26:46.051Z,7.90
2023-02-04T16:29:12.843Z,11.53
2023-02-04T16:31:39.607Z,15.43
2023-02-04T16:34:06.377Z,12.10
2023-02-04T16:36:33.368Z,8.77
2023-02-04T16:39:00.235Z,10.77
2023-02-04T16:41:27.054Z,9.23
2023-02-04T16:43:53.779Z,9.00
2023-02-04T16:46:20.725Z,8.57
2023-02-04T16:48:47.419Z,9.10
2023-02-04T16:51:14.149Z,10.05
2023-02-04T16:53:40.940Z,9.23
2023-02-04T16:56:07.978Z,7.60
2023-02-04T16:58:34.709Z,8.43
2023-02-04T17:01:01.494Z,8.13
2023-02-04T17:03:28.458Z,8.63
2023-02-04T17:05:55.223Z,8.47
2023-02-04T17:08:22.237Z,7.90
2023-02-04T17:11:08.353Z,8.30
2023-02-04T17:13:35.143Z,8.00
2023-02-04T17:16:02.291Z,8.83
2023-02-04T17:18:31.712Z,10.07
2023-02-04T17:20:59.462Z,9.80
2023-02-04T17:23:26.940Z,9.00
2023-02-04T17:25:54.021Z,12.90
2023-02-04T17:28:20.891Z,13.07
2023-02-04T17:30:47.738Z,12.27
2023-02-04T17:33:14.500Z,10.10
2023-02-04T17:35:41.231Z,9.13
2023-02-04T17:38:08.026Z,9.60
2023-02-04T17:40:34.830Z,9.00
2023-02-04T17:43:01.593Z,8.63
2023-02-04T17:45:28.538Z,9.43
2023-02-04T17:47:55.313Z,9.43
2023-02-04T17:50:22.030Z,9.00
2023-02-04T17:52:48.790Z,8.63
2023-02-04T17:55:30.647Z,8.90
2023-02-04T17:58:02.096Z,9.40
2023-02-04T18:00:31.539Z,9.73
2023-02-04T18:02:58.829Z,12.23
2023-02-04T18:05:28.590Z,11.73
2023-02-04T18:08:19.650Z,11.33
2023-02-04T18:10:57.061Z,11.87
2023-02-04T18:13:34.037Z,13.90
2023-02-04T18:16:19.140Z,18.37
2023-02-04T18:18:45.878Z,13.97
2023-02-04T18:21:21.001Z,14.43
2023-02-04T18:23:53.609Z,14.20
2023-02-04T18:26:25.712Z,12.13
2023-02-04T18:28:52.867Z,10.73
2023-02-04T18:31:25.414Z,9.97
2023-02-04T18:33:52.377Z,8.77
2023-02-04T18:36:20.626Z,7.70
2023-02-04T18:38:47.424Z,10.23
2023-02-04T18:41:22.879Z,15.27
2023-02-04T18:44:02.199Z,10.47
2023-02-04T18:46:45.939Z,9.60
2023-02-04T18:49:33.269Z,9.13
2023-02-04T18:52:14.999Z,9.50
2023-02-04T18:54:53.465Z,9.17
2023-02-04T18:57:34.536Z,9.53
2023-02-04T19:00:10.448Z,9.37
2023-02-04T19:02:49.381Z,10.00
2023-02-04T19:05:42.383Z,9.67
2023-02-04T19:08:25.848Z,8.53
2023-02-04T19:10:58.835Z,9.57
2023-02-04T19:13:42.173Z,11.53
2023-02-04T19:16:26.510Z,12.03
2023-02-04T19:18:54.793Z,16.10
2023-02-04T19:21:27.469Z,14.00
2023-02-04T19:24:21.032Z,15.20
2023-02-04T19:27:01.759Z,14.03
2023-02-04T19:29:42.440Z,13.80
2023-02-04T19:32:27.837Z,13.20
2023-02-04T19:35:00.660Z,14.53
2023-02-04T19:37:39.797Z,15.90
2023-02-04T19:40:29.164Z,15.90
2023-02-04T19:43:08.335Z,15.33
2023-02-04T19:45:35.338Z,17.67
2023-02-04T19:48:14.582Z,18.00
2023-02-04T19:50:41.354Z,17.13
2023-02-04T19:53:27.063Z,15.73
2023-02-04T19:55:54.635Z,14.17
2023-02-04T19:58:36.697Z,13.60
2023-02-04T20:01:18.342Z,13.40
2023-02-04T20:03:47.713Z,13.30
2023-02-04T20:06:43.590Z,14.60
2023-02-04T20:09:29.103Z,14.17
2023-02-04T20:12:17.955Z,15.10
2023-02-04T20:14:56.587Z,14.87
2023-02-04T20:17:43.562Z,16.13
2023-02-04T20:20:21.073Z,14.87
2023-02-04T20:22:59.729Z,16.83
2023-02-04T20:25:48.003Z,14.13
2023-02-04T20:28:24.101Z,12.70
2023-02-04T20:30:52.117Z,14.23
2023-02-04T20:33:48.962Z,16.17
2023-02-04T20:36:25.039Z,12.07
2023-02-04T20:39:28.669Z,13.10
2023-02-04T20:42:17.458Z,12.17
2023-02-04T20:44:44.227Z,13.00
2023-02-04T20:47:25.208Z,15.70
2023-02-04T20:49:58.918Z,13.73
2023-02-04T20:52:40.794Z,15.10
2023-02-04T20:55:26.572Z,12.97
2023-02-04T20:58:11.827Z,11.83
2023-02-04T21:00:40.324Z,12.03
2023-02-04T21:03:27.504Z,11.67
2023-02-04T21:05:59.902Z,10.17
2023-02-04T21:08:43.844Z,10.53
2023-02-04T21:11:11.202Z,10.47
2023-02-04T21:13:38.719Z,9.60
2023-02-04T21:16:06.505Z,10.17
2023-02-04T21:18:36.163Z,9.07
2023-02-04T21:21:07.238Z,8.77
2023-02-04T21:23:36.701Z,8.93
2023-02-04T21:26:05.036Z,9.00
2023-02-04T21:28:32.894Z,8.20
2023-02-04T21:31:01.006Z,8.07
2023-02-04T21:33:27.961Z,8.03
2023-02-04T21:35:54.721Z,8.00
2023-02-04T21:38:21.518Z,6.93
2023-02-04T21:40:48.502Z,7.73
2023-02-04T21:43:15.389Z,7.13
2023-02-04T21:45:42.286Z,6.60
2023-02-04T21:48:09.081Z,8.20
2023-02-04T21:50:38.402Z,7.60
2023-02-04T21:53:07.437Z,7.50
2023-02-04T21:55:35.235Z,7.63
2023-02-04T21:58:02.803Z,8.97
2023-02-04T22:00:29.987Z,7.90
2023-02-04T22:02:56.868Z,8.37
2023-02-04T22:05:24.757Z,7.87
2023-02-04T22:07:52.206Z,8.27
2023-02-04T22:10:25.649Z,8.87
2023-02-04T22:12:52.991Z,9.20
2023-02-04T22:15:21.497Z,8.73
2023-02-04T22:17:49.537Z,8.33
2023-02-04T22:20:17.552Z,9.47
2023-02-04T22:22:45.944Z,8.07
2023-02-04T22:25:15.946Z,8.67
2023-02-04T22:27:43.172Z,10.07
2023-02-04T22:30:12.884Z,10.30
2023-02-04T22:32:40.392Z,10.53
2023-02-04T22:35:10.265Z,10.47
2023-02-04T22:37:41.754Z,11.47
2023-02-04T22:40:11.254Z,11.53
2023-02-04T22:42:38.395Z,12.00
2023-02-04T22:45:05.777Z,12.43
2023-02-04T22:47:32.587Z,13.13
2023-02-04T22:49:59.377Z,11.17
2023-02-04T22:52:26.188Z,11.37
2023-02-04T22:54:53.349Z,10.57
2023-02-04T22:57:20.151Z,12.53
2023-02-04T22:59:47.023Z,13.07
2023-02-04T23:02:13.939Z,12.97
2023-02-04T23:04:43.674Z,13.47
2023-02-04T23:07:12.726Z,14.00
2023-02-04T23:09:39.871Z,13.40
2023-02-04T23:12:13.143Z,12.87
2023-02-04T23:14:46.142Z,14.60
2023-02-04T23:17:15.413Z,14.03
2023-02-04T23:19:42.697Z,15.70
2023-02-04T23:22:12.804Z,15.00
2023-02-04T23:24:40.987Z,16.60
2023-02-04T23:27:10.772Z,14.60
2023-02-04T23:29:39.387Z,16.37
2023-02-04T23:32:06.569Z,15.53
2023-02-04T23:34:34.211Z,16.80
2023-02-04T23:37:01.216Z,16.23
2023-02-04T23:39:28.104Z,15.37
2023-02-04T23:41:54.953Z,17.70
2023-02-04T23:44:21.735Z,18.27
2023-02-04T23:46:48.598Z,16.73
2023-02-04T23:49:15.650Z,16.40
2023-02-04T23:51:42.951Z,16.40
2023-02-04T23:54:10.194Z,15.10
2023-02-04T23:56:36.929Z,13.63
2023-02-04T23:59:04.301Z,12.60
